Time,TemperatureF,DewpointF,PressureIn,WindDirection,WindDirectionDegrees,WindSpeedMPH,WindSpeedGustMPH,Humidity,HourlyPrecipIn,Conditions,Clouds,dailyrainin,SoftwareType,DateUTC
2014-02-08 00:00:00,51.6,33.6,30.02,WSW,254,2.0,2.0,50,0.00,,,0.00,Wunderground v.1.15,2014-02-08 07:00:00,
2014-02-08 00:05:00,51.5,33.5,30.02,WSW,255,1.0,2.0,50,0.00,,,0.00,Wunderground v.1.15,2014-02-08 07:05:00,
2014-02-08 00:10:00,51.6,33.0,30.01,WSW,238,0.0,0.0,49,0.00,,,0.00,Wunderground v.1.15,2014-02-08 07:10:00,
2014-02-08 00:15:00,51.5,33.0,30.02,WSW,243,0.0,0.0,49,0.00,,,0.00,Wunderground v.1.15,2014-02-08 07:15:00,
2014-02-08 00:20:00,51.0,33.0,30.02,NW,315,0.0,0.0,50,0.00,,,0.00,Wunderground v.1.15,2014-02-08 07:20:00,
2014-02-08 00:25:00,51.1,33.1,30.02,WNW,298,0.0,0.0,50,0.00,,,0.00,Wunderground v.1.15,2014-02-08 07:25:00,
2014-02-08 00:30:00,51.9,32.8,30.02,West,267,0.0,0.0,48,0.00,,,0.00,Wunderground v.1.15,2014-02-08 07:30:00,
2014-02-08 00:35:00,51.6,32.5,30.02,West,267,0.0,0.0,48,0.00,,,0.00,Wunderground v.1.15,2014-02-08 07:35:00,
2014-02-08 00:45:00,50.4,32.4,30.03,NW,313,0.0,1.0,50,0.00,,,0.00,Wunderground v.1.15,2014-02-08 07:45:00,
2014-02-08 00:50:00,49.8,32.4,30.03,NW,311,1.0,2.0,51,0.00,,,0.00,Wunderground v.1.15,2014-02-08 07:50:00,
2014-02-08 00:55:00,50.2,32.8,30.02,NW,322,2.0,2.0,51,0.00,,,0.00,Wunderground v.1.15,2014-02-08 07:55:00,
2014-02-08 01:05:00,51.3,32.3,30.02,NW,311,1.0,2.0,48,0.00,,,0.00,Wunderground v.1.15,2014-02-08 08:05:00,
2014-02-08 01:10:00,51.4,32.3,30.01,NW,311,1.0,2.0,48,0.00,,,0.00,Wunderground v.1.15,2014-02-08 08:10:00,
2014-02-08 01:15:00,51.2,31.6,30.02,WNW,295,2.0,2.0,47,0.00,,,0.00,Wunderground v.1.15,2014-02-08 08:15:00,
2014-02-08 01:20:00,50.8,31.8,30.01,WNW,295,1.0,2.0,48,0.00,,,0.00,Wunderground v.1.15,2014-02-08 08:20:00,
2014-02-08 01:30:00,51.3,32.3,30.01,WNW,287,2.0,3.0,48,0.00,,,0.00,Wunderground v.1.15,2014-02-08 08:30:00,
2014-02-08 01:35:00,51.6,32.0,30.01,WNW,284,3.0,3.0,47,0.00,,,0.00,Wunderground v.1.15,2014-02-08 08:35:00,
2014-02-08 01:40:00,51.8,32.2,30.01,West,280,2.0,2.0,47,0.00,,,0.00,Wunderground v.1.15,2014-02-08 08:40:00,
2014-02-08 01:45:00,52.0,31.8,30.01,West,281,2.0,2.0,46,0.00,,,0.00,Wunderground v.1.15,2014-02-08 08:45:00,
2014-02-08 01:50:00,51.9,31.7,30.01,West,267,1.0,1.0,46,0.00,,,0.00,Wunderground v.1.15,2014-02-08 08:50:00,
2014-02-08 01:55:00,51.9,31.7,30.01,WNW,282,1.0,2.0,46,0.00,,,0.00,Wunderground v.1.15,2014-02-08 08:55:00,
2014-02-08 02:05:00,51.3,31.7,30.01,WNW,294,3.0,5.0,47,0.00,,,0.00,Wunderground v.1.15,2014-02-08 09:05:00,
2014-02-08 02:10:00,50.8,31.8,30.02,WNW,300,4.0,6.0,48,0.00,,,0.00,Wunderground v.1.15,2014-02-08 09:10:00,
2014-02-08 02:20:00,50.5,32.0,30.01,WNW,298,4.0,5.0,49,0.00,,,0.00,Wunderground v.1.15,2014-02-08 09:20:00,
2014-02-08 02:25:00,50.5,32.0,30.02,WNW,298,4.0,5.0,49,0.00,,,0.00,Wunderground v.1.15,2014-02-08 09:25:00,
2014-02-08 02:30:00,50.4,31.9,30.01,WNW,287,5.0,5.0,49,0.00,,,0.00,Wunderground v.1.15,2014-02-08 09:30:00,
2014-02-08 02:40:00,50.7,32.2,30.02,WNW,285,4.0,4.0,49,0.00,,,0.00,Wunderground v.1.15,2014-02-08 09:40:00,
2014-02-08 02:45:00,50.1,32.2,30.02,WNW,301,4.0,5.0,50,0.00,,,0.00,Wunderground v.1.15,2014-02-08 09:45:00,
2014-02-08 02:50:00,50.1,32.2,30.02,WNW,300,4.0,5.0,50,0.00,,,0.00,Wunderground v.1.15,2014-02-08 09:50:00,
2014-02-08 02:55:00,49.9,32.0,30.02,NW,304,4.0,5.0,50,0.00,,,0.00,Wunderground v.1.15,2014-02-08 09:55:00,
2014-02-08 03:00:00,50.0,32.1,30.02,NW,308,4.0,4.0,50,0.00,,,0.00,Wunderground v.1.15,2014-02-08 10:00:00,
2014-02-08 03:05:00,50.0,32.1,30.02,NW,305,4.0,4.0,50,0.00,,,0.00,Wunderground v.1.15,2014-02-08 10:05:00,
2014-02-08 03:10:00,49.2,31.8,30.02,NW,320,3.0,3.0,51,0.00,,,0.00,Wunderground v.1.15,2014-02-08 10:10:00,
2014-02-08 03:15:00,48.8,31.9,30.02,WNW,299,2.0,3.0,52,0.00,,,0.00,Wunderground v.1.15,2014-02-08 10:15:00,
2014-02-08 03:20:00,48.5,31.7,30.02,NW,304,1.0,1.0,52,0.00,,,0.00,Wunderground v.1.15,2014-02-08 10:20:00,
2014-02-08 03:25:00,48.9,32.0,30.02,West,281,0.0,1.0,52,0.00,,,0.00,Wunderground v.1.15,2014-02-08 10:25:00,
2014-02-08 03:30:00,49.1,32.2,30.02,WNW,282,0.0,0.0,52,0.00,,,0.00,Wunderground v.1.15,2014-02-08 10:30:00,
2014-02-08 03:35:00,48.9,32.0,30.02,WNW,282,0.0,0.0,52,0.00,,,0.00,Wunderground v.1.15,2014-02-08 10:35:00,
2014-02-08 03:45:00,48.5,32.1,30.02,NW,304,0.0,0.0,53,0.00,,,0.00,Wunderground v.1.15,2014-02-08 10:45:00,
2014-02-08 03:50:00,48.8,31.9,30.02,NNW,333,0.0,0.0,52,0.00,,,0.00,Wunderground v.1.15,2014-02-08 10:50:00,
2014-02-08 03:55:00,48.9,32.0,30.02,NNW,333,0.0,0.0,52,0.00,,,0.00,Wunderground v.1.15,2014-02-08 10:55:00,
2014-02-08 04:05:00,48.3,31.9,30.02,WNW,289,0.0,2.0,53,0.00,,,0.00,Wunderground v.1.15,2014-02-08 11:05:00,
2014-02-08 04:10:00,48.3,31.9,30.02,WNW,291,1.0,2.0,53,0.00,,,0.00,Wunderground v.1.15,2014-02-08 11:10:00,
2014-02-08 04:20:00,49.2,31.8,30.02,WNW,297,2.0,2.0,51,0.00,,,0.00,Wunderground v.1.15,2014-02-08 11:20:00,
2014-02-08 04:25:00,48.7,31.8,30.02,NW,325,2.0,2.0,52,0.00,,,0.00,Wunderground v.1.15,2014-02-08 11:25:00,
2014-02-08 04:30:00,48.9,32.0,30.02,NW,319,2.0,3.0,52,0.00,,,0.00,Wunderground v.1.15,2014-02-08 11:30:00,
2014-02-08 04:35:00,49.1,32.2,30.02,NNW,330,3.0,3.0,52,0.00,,,0.00,Wunderground v.1.15,2014-02-08 11:35:00,
2014-02-08 04:40:00,49.1,32.2,30.01,NW,323,3.0,3.0,52,0.00,,,0.00,Wunderground v.1.15,2014-02-08 11:40:00,
2014-02-08 04:45:00,49.0,32.1,30.01,NNW,328,3.0,4.0,52,0.00,,,0.00,Wunderground v.1.15,2014-02-08 11:45:00,
2014-02-08 04:50:00,48.7,32.3,30.02,NW,321,4.0,4.0,53,0.00,,,0.00,Wunderground v.1.15,2014-02-08 11:50:00,
2014-02-08 04:55:00,48.3,32.4,30.02,NW,316,4.0,4.0,54,0.00,,,0.00,Wunderground v.1.15,2014-02-08 11:55:00,
2014-02-08 05:00:00,47.9,32.5,30.02,NNW,327,4.0,5.0,55,0.00,,,0.00,Wunderground v.1.15,2014-02-08 12:00:00,
2014-02-08 05:05:00,48.5,33.1,30.02,North,356,5.0,8.0,55,0.00,,,0.00,Wunderground v.1.15,2014-02-08 12:05:00,
2014-02-08 05:10:00,48.8,33.3,30.02,NNW,339,6.0,6.0,55,0.00,,,0.00,Wunderground v.1.15,2014-02-08 12:10:00,
2014-02-08 05:20:00,49.4,33.4,30.01,NNW,329,3.0,3.0,54,0.00,,,0.00,Wunderground v.1.15,2014-02-08 12:20:00,
2014-02-08 05:25:00,49.7,33.7,30.01,NNW,337,2.0,3.0,54,0.00,,,0.00,Wunderground v.1.15,2014-02-08 12:25:00,
2014-02-08 05:30:00,49.8,33.3,30.01,NNW,328,1.0,2.0,53,0.00,,,0.00,Wunderground v.1.15,2014-02-08 12:30:00,
2014-02-08 05:35:00,49.8,33.8,30.01,NW,316,1.0,3.0,54,0.00,,,0.00,Wunderground v.1.15,2014-02-08 12:35:00,
2014-02-08 05:40:00,49.1,33.6,30.01,NNW,340,2.0,2.0,55,0.00,,,0.00,Wunderground v.1.15,2014-02-08 12:40:00,
2014-02-08 05:45:00,48.7,33.7,30.01,WNW,290,2.0,2.0,56,0.00,,,0.00,Wunderground v.1.15,2014-02-08 12:45:00,
2014-02-08 05:50:00,48.4,33.9,30.01,NW,318,2.0,2.0,57,0.00,,,0.00,Wunderground v.1.15,2014-02-08 12:50:00,
2014-02-08 06:00:00,48.5,33.9,30.02,NW,314,2.0,2.0,57,0.00,,,0.00,Wunderground v.1.15,2014-02-08 13:00:00,
2014-02-08 06:05:00,49.2,33.7,30.02,NW,314,0.0,2.0,55,0.00,,,0.00,Wunderground v.1.15,2014-02-08 13:05:00,
2014-02-08 06:10:00,49.1,33.6,30.02,NNW,340,0.0,2.0,55,0.00,,,0.00,Wunderground v.1.15,2014-02-08 13:10:00,
2014-02-08 06:15:00,49.0,33.5,30.02,NW,319,1.0,2.0,55,0.00,,,0.00,Wunderground v.1.15,2014-02-08 13:15:00,
2014-02-08 06:25:00,49.2,33.3,30.02,NW,316,1.0,1.0,54,0.00,,,0.00,Wunderground v.1.15,2014-02-08 13:25:00,
2014-02-08 06:30:00,49.3,33.3,30.02,NW,316,0.0,0.0,54,0.00,,,0.00,Wunderground v.1.15,2014-02-08 13:30:00,
2014-02-08 06:40:00,49.2,33.3,30.03,NNW,337,1.0,4.0,54,0.00,,,0.00,Wunderground v.1.15,2014-02-08 13:40:00,
2014-02-08 06:45:00,48.3,33.3,30.03,NNW,339,2.0,4.0,56,0.00,,,0.00,Wunderground v.1.15,2014-02-08 13:45:00,
2014-02-08 06:50:00,48.3,33.8,30.03,NW,319,4.0,4.0,57,0.00,,,0.00,Wunderground v.1.15,2014-02-08 13:50:00,
2014-02-08 06:55:00,48.5,33.5,30.04,NNW,333,5.0,6.0,56,0.00,,,0.00,Wunderground v.1.15,2014-02-08 13:55:00,
2014-02-08 07:05:00,48.5,33.5,30.05,NNW,332,5.0,5.0,56,0.00,,,0.00,Wunderground v.1.15,2014-02-08 14:05:00,
2014-02-08 07:10:00,48.7,33.2,30.04,North,354,5.0,5.0,55,0.00,,,0.00,Wunderground v.1.15,2014-02-08 14:10:00,
2014-02-08 07:15:00,48.9,33.4,30.05,NNW,333,4.0,5.0,55,0.00,,,0.00,Wunderground v.1.15,2014-02-08 14:15:00,
2014-02-08 07:20:00,49.6,33.2,30.05,NW,323,3.0,3.0,53,0.00,,,0.00,Wunderground v.1.15,2014-02-08 14:20:00,
2014-02-08 07:25:00,50.1,33.1,30.05,NW,326,3.0,3.0,52,0.00,,,0.00,Wunderground v.1.15,2014-02-08 14:25:00,
2014-02-08 07:30:00,50.2,33.2,30.05,NW,318,3.0,3.0,52,0.00,,,0.00,Wunderground v.1.15,2014-02-08 14:30:00,
2014-02-08 07:40:00,50.7,33.7,30.05,NW,319,5.0,5.0,52,0.00,,,0.00,Wunderground v.1.15,2014-02-08 14:40:00,
2014-02-08 07:45:00,51.0,34.0,30.05,NW,323,4.0,5.0,52,0.00,,,0.00,Wunderground v.1.15,2014-02-08 14:45:00,
2014-02-08 07:50:00,51.0,34.0,30.05,NW,316,3.0,3.0,52,0.00,,,0.00,Wunderground v.1.15,2014-02-08 14:50:00,
2014-02-08 07:55:00,51.4,33.9,30.05,WSW,238,2.0,3.0,51,0.00,,,0.00,Wunderground v.1.15,2014-02-08 14:55:00,
2014-02-08 08:00:00,51.8,33.7,30.06,SW,232,1.0,3.0,50,0.00,,,0.00,Wunderground v.1.15,2014-02-08 15:00:00,
2014-02-08 08:10:00,52.3,34.2,30.06,SW,221,3.0,3.0,50,0.00,,,0.00,Wunderground v.1.15,2014-02-08 15:10:00,
2014-02-08 08:15:00,51.4,34.3,30.06,SW,231,2.0,3.0,52,0.00,,,0.00,Wunderground v.1.15,2014-02-08 15:15:00,
2014-02-08 08:25:00,51.9,34.3,30.07,WSW,247,2.0,3.0,51,0.00,,,0.00,Wunderground v.1.15,2014-02-08 15:25:00,
2014-02-08 08:30:00,52.5,34.4,30.07,WSW,252,2.0,2.0,50,0.00,,,0.00,Wunderground v.1.15,2014-02-08 15:30:00,
2014-02-08 08:35:00,52.2,34.1,30.07,SW,219,3.0,6.0,50,0.00,,,0.00,Wunderground v.1.15,2014-02-08 15:35:00,
2014-02-08 08:45:00,51.2,32.7,30.08,SSW,201,3.0,5.0,49,0.00,,,0.00,Wunderground v.1.15,2014-02-08 15:45:00,
2014-02-08 08:50:00,51.3,32.8,30.08,SW,222,3.0,3.0,49,0.00,,,0.00,Wunderground v.1.15,2014-02-08 15:50:00,
2014-02-08 08:55:00,51.1,32.1,30.08,WSW,256,2.0,3.0,48,0.00,,,0.00,Wunderground v.1.15,2014-02-08 15:55:00,
2014-02-08 09:00:00,51.2,32.2,30.09,WSW,252,1.0,2.0,48,0.00,,,0.00,Wunderground v.1.15,2014-02-08 16:00:00,
2014-02-08 09:05:00,51.6,32.5,30.09,WSW,252,1.0,2.0,48,0.00,,,0.00,Wunderground v.1.15,2014-02-08 16:05:00,
2014-02-08 09:10:00,53.0,32.8,30.08,West,259,1.0,2.0,46,0.00,,,0.00,Wunderground v.1.15,2014-02-08 16:10:00,
2014-02-08 09:20:00,54.1,33.2,30.09,SW,217,2.0,2.0,45,0.00,,,0.00,Wunderground v.1.15,2014-02-08 16:20:00,
2014-02-08 09:25:00,54.9,33.4,30.09,SSE,166,2.0,2.0,44,0.00,,,0.00,Wunderground v.1.15,2014-02-08 16:25:00,
2014-02-08 09:30:00,55.8,33.6,30.09,SW,214,2.0,2.0,43,0.00,,,0.00,Wunderground v.1.15,2014-02-08 16:30:00,
2014-02-08 09:35:00,56.3,33.5,30.09,SSE,158,2.0,2.0,42,0.00,,,0.00,Wunderground v.1.15,2014-02-08 16:35:00,
2014-02-08 09:40:00,56.7,33.2,30.09,East,82,2.0,2.0,41,0.00,,,0.00,Wunderground v.1.15,2014-02-08 16:40:00,
2014-02-08 09:50:00,57.6,34.1,30.09,SSE,158,1.0,3.0,41,0.00,,,0.00,Wunderground v.1.15,2014-02-08 16:50:00,
2014-02-08 09:55:00,58.4,34.2,30.09,SE,131,1.0,4.0,40,0.00,,,0.00,Wunderground v.1.15,2014-02-08 16:55:00,
2014-02-08 10:05:00,59.2,34.2,30.10,South,188,3.0,3.0,39,0.00,,,0.00,Wunderground v.1.15,2014-02-08 17:05:00,
2014-02-08 10:10:00,60.1,34.4,30.10,SE,131,2.0,3.0,38,0.00,,,0.00,Wunderground v.1.15,2014-02-08 17:10:00,
2014-02-08 10:15:00,59.4,34.4,30.10,ESE,116,2.0,4.0,39,0.00,,,0.00,Wunderground v.1.15,2014-02-08 17:15:00,
2014-02-08 10:25:00,60.3,34.6,30.10,ESE,120,1.0,4.0,38,0.00,,,0.00,Wunderground v.1.15,2014-02-08 17:25:00,
2014-02-08 10:30:00,60.5,34.1,30.10,WNW,283,1.0,1.0,37,0.00,,,0.00,Wunderground v.1.15,2014-02-08 17:30:00,
2014-02-08 10:35:00,60.6,34.2,30.10,SE,143,2.0,3.0,37,0.00,,,0.00,Wunderground v.1.15,2014-02-08 17:35:00,
2014-02-08 10:40:00,60.7,34.3,30.10,SE,141,2.0,2.0,37,0.00,,,0.00,Wunderground v.1.15,2014-02-08 17:40:00,
2014-02-08 10:45:00,61.6,34.4,30.10,SSE,166,2.0,4.0,36,0.00,,,0.00,Wunderground v.1.15,2014-02-08 17:45:00,
2014-02-08 10:55:00,60.3,33.9,30.10,ESE,103,4.0,4.0,37,0.00,,,0.00,Wunderground v.1.15,2014-02-08 17:55:00,
2014-02-08 11:05:00,60.7,34.3,30.09,SE,131,3.0,4.0,37,0.00,,,0.00,Wunderground v.1.15,2014-02-08 18:05:00,
2014-02-08 11:10:00,61.0,33.8,30.09,South,188,2.0,2.0,36,0.00,,,0.00,Wunderground v.1.15,2014-02-08 18:10:00,
2014-02-08 11:15:00,61.7,34.5,30.09,SW,215,2.0,4.0,36,0.00,,,0.00,Wunderground v.1.15,2014-02-08 18:15:00,
2014-02-08 11:20:00,61.5,34.3,30.09,East,92,3.0,4.0,36,0.00,,,0.00,Wunderground v.1.15,2014-02-08 18:20:00,
2014-02-08 11:25:00,61.2,34.0,30.08,SSW,193,4.0,6.0,36,0.00,,,0.00,Wunderground v.1.15,2014-02-08 18:25:00,
2014-02-08 11:35:00,62.2,34.2,30.08,SW,225,4.0,5.0,35,0.00,,,0.00,Wunderground v.1.15,2014-02-08 18:35:00,
2014-02-08 11:40:00,62.4,34.4,30.09,SSE,149,3.0,3.0,35,0.00,,,0.00,Wunderground v.1.15,2014-02-08 18:40:00,
2014-02-08 11:45:00,62.6,33.8,30.09,SSW,210,4.0,8.0,34,0.00,,,0.00,Wunderground v.1.15,2014-02-08 18:45:00,
2014-02-08 11:50:00,62.8,34.0,30.08,WSW,238,5.0,5.0,34,0.00,,,0.00,Wunderground v.1.15,2014-02-08 18:50:00,
2014-02-08 12:00:00,63.6,34.7,30.08,SSE,155,3.0,3.0,34,0.00,,,0.00,Wunderground v.1.15,2014-02-08 19:00:00,
2014-02-08 12:05:00,63.9,35.0,30.08,SSE,149,3.0,6.0,34,0.00,,,0.00,Wunderground v.1.15,2014-02-08 19:05:00,
2014-02-08 12:10:00,63.8,34.1,30.08,ESE,116,3.0,4.0,33,0.00,,,0.00,Wunderground v.1.15,2014-02-08 19:10:00,
2014-02-08 12:15:00,64.0,34.3,30.08,West,266,4.0,4.0,33,0.00,,,0.00,Wunderground v.1.15,2014-02-08 19:15:00,
2014-02-08 12:20:00,63.4,34.5,30.07,SSE,161,4.0,8.0,34,0.00,,,0.00,Wunderground v.1.15,2014-02-08 19:20:00,
2014-02-08 12:25:00,63.0,34.2,30.07,SSW,201,6.0,8.0,34,0.00,,,0.00,Wunderground v.1.15,2014-02-08 19:25:00,
2014-02-08 12:30:00,63.8,34.1,30.07,ESE,110,5.0,5.0,33,0.00,,,0.00,Wunderground v.1.15,2014-02-08 19:30:00,
2014-02-08 12:35:00,64.1,34.4,30.06,SSW,207,5.0,5.0,33,0.00,,,0.00,Wunderground v.1.15,2014-02-08 19:35:00,
2014-02-08 12:40:00,63.9,34.2,30.06,SSW,198,5.0,6.0,33,0.00,,,0.00,Wunderground v.1.15,2014-02-08 19:40:00,
2014-02-08 12:45:00,64.4,33.9,30.06,SSE,166,5.0,6.0,32,0.00,,,0.00,Wunderground v.1.15,2014-02-08 19:45:00,
2014-02-08 12:50:00,64.2,33.7,30.06,West,264,4.0,4.0,32,0.00,,,0.00,Wunderground v.1.15,2014-02-08 19:50:00,
2014-02-08 13:00:00,64.2,33.7,30.05,West,269,4.0,4.0,32,0.00,,,0.00,Wunderground v.1.15,2014-02-08 20:00:00,
2014-02-08 13:05:00,64.7,34.1,30.05,SSW,200,4.0,7.0,32,0.00,,,0.00,Wunderground v.1.15,2014-02-08 20:05:00,
2014-02-08 13:15:00,65.1,33.7,30.04,SE,141,4.0,5.0,31,0.00,,,0.00,Wunderground v.1.15,2014-02-08 20:15:00,
2014-02-08 13:20:00,64.9,34.3,30.04,WSW,256,4.0,4.0,32,0.00,,,0.00,Wunderground v.1.15,2014-02-08 20:20:00,
2014-02-08 13:25:00,64.7,33.3,30.04,WSW,243,6.0,7.0,31,0.00,,,0.00,Wunderground v.1.15,2014-02-08 20:25:00,
2014-02-08 13:30:00,64.5,34.0,30.04,SSE,152,7.0,7.0,32,0.00,,,0.00,Wunderground v.1.15,2014-02-08 20:30:00,
2014-02-08 13:35:00,63.8,33.4,30.04,WSW,242,7.0,7.0,32,0.00,,,0.00,Wunderground v.1.15,2014-02-08 20:35:00,
2014-02-08 13:40:00,63.9,33.4,30.04,SW,217,5.0,5.0,32,0.00,,,0.00,Wunderground v.1.15,2014-02-08 20:40:00,
2014-02-08 13:50:00,64.6,33.3,30.04,West,267,7.0,7.0,31,0.00,,,0.00,Wunderground v.1.15,2014-02-08 20:50:00,
2014-02-08 13:55:00,63.9,32.6,30.04,SSW,193,7.0,7.0,31,0.00,,,0.00,Wunderground v.1.15,2014-02-08 20:55:00,
2014-02-08 14:00:00,63.8,32.6,30.04,SW,236,6.0,6.0,31,0.00,,,0.00,Wunderground v.1.15,2014-02-08 21:00:00,
2014-02-08 14:05:00,63.5,32.3,30.04,South,173,6.0,6.0,31,0.00,,,0.00,Wunderground v.1.15,2014-02-08 21:05:00,
2014-02-08 14:10:00,64.1,32.8,30.03,SSE,158,7.0,7.0,31,0.00,,,0.00,Wunderground v.1.15,2014-02-08 21:10:00,
2014-02-08 14:20:00,64.4,32.3,30.04,SSW,200,5.0,7.0,30,0.00,,,0.00,Wunderground v.1.15,2014-02-08 21:20:00,
2014-02-08 14:25:00,64.8,31.8,30.04,SSW,198,5.0,7.0,29,0.00,,,0.00,Wunderground v.1.15,2014-02-08 21:25:00,
2014-02-08 14:30:00,65.2,31.2,30.03,SW,231,5.0,9.0,28,0.00,,,0.00,Wunderground v.1.15,2014-02-08 21:30:00,
2014-02-08 14:35:00,65.6,31.6,30.03,SSW,200,7.0,9.0,28,0.00,,,0.00,Wunderground v.1.15,2014-02-08 21:35:00,
2014-02-08 14:45:00,66.2,31.2,30.03,SSW,208,5.0,6.0,27,0.00,,,0.00,Wunderground v.1.15,2014-02-08 21:45:00,
2014-02-08 14:55:00,65.7,31.7,30.02,SW,226,4.0,7.0,28,0.00,,,0.00,Wunderground v.1.15,2014-02-08 21:55:00,
2014-02-08 15:00:00,65.6,30.7,30.02,SW,214,5.0,5.0,27,0.00,,,0.00,Wunderground v.1.15,2014-02-08 22:00:00,
2014-02-08 15:05:00,66.4,31.4,30.01,SSW,194,5.0,9.0,27,0.00,,,0.00,Wunderground v.1.15,2014-02-08 22:05:00,
2014-02-08 15:10:00,66.5,30.5,30.01,SW,219,5.0,7.0,26,0.00,,,0.00,Wunderground v.1.15,2014-02-08 22:10:00,
2014-02-08 15:15:00,66.3,30.4,30.00,West,260,6.0,7.0,26,0.00,,,0.00,Wunderground v.1.15,2014-02-08 22:15:00,
2014-02-08 15:20:00,66.2,30.3,30.00,SW,222,6.0,9.0,26,0.00,,,0.00,Wunderground v.1.15,2014-02-08 22:20:00,
2014-02-08 15:30:00,66.5,30.5,30.00,South,187,7.0,9.0,26,0.00,,,0.00,Wunderground v.1.15,2014-02-08 22:30:00,
2014-02-08 15:35:00,66.5,30.5,30.00,SSW,211,7.0,10.0,26,0.00,,,0.00,Wunderground v.1.15,2014-02-08 22:35:00,
2014-02-08 15:40:00,66.5,30.5,30.00,SW,225,7.0,7.0,26,0.00,,,0.00,Wunderground v.1.15,2014-02-08 22:40:00,
2014-02-08 15:45:00,67.0,30.0,30.00,SW,214,6.0,7.0,25,0.00,,,0.00,Wunderground v.1.15,2014-02-08 22:45:00,
2014-02-08 15:50:00,67.0,30.0,30.00,SW,214,6.0,6.0,25,0.00,,,0.00,Wunderground v.1.15,2014-02-08 22:50:00,
2014-02-08 15:55:00,66.4,29.5,30.00,SSW,192,6.0,6.0,25,0.00,,,0.00,Wunderground v.1.15,2014-02-08 22:55:00,
2014-02-08 16:00:00,66.6,30.6,30.00,SSW,205,5.0,5.0,26,0.00,,,0.00,Wunderground v.1.15,2014-02-08 23:00:00,
2014-02-08 16:05:00,66.5,30.5,30.00,WSW,247,5.0,8.0,26,0.00,,,0.00,Wunderground v.1.15,2014-02-08 23:05:00,
2014-02-08 16:10:00,66.1,30.2,30.00,SW,228,5.0,5.0,26,0.00,,,0.00,Wunderground v.1.15,2014-02-08 23:10:00,
2014-02-08 16:15:00,66.7,30.7,30.00,SW,219,5.0,6.0,26,0.00,,,0.00,Wunderground v.1.15,2014-02-08 23:15:00,
2014-02-08 16:25:00,65.8,29.9,30.00,WSW,243,6.0,9.0,26,0.00,,,0.00,Wunderground v.1.15,2014-02-08 23:25:00,
2014-02-08 16:30:00,65.7,29.8,30.00,SSE,162,7.0,7.0,26,0.00,,,0.00,Wunderground v.1.15,2014-02-08 23:30:00,
2014-02-08 16:35:00,65.8,29.9,30.00,WSW,249,6.0,7.0,26,0.00,,,0.00,Wunderground v.1.15,2014-02-08 23:35:00,
2014-02-08 16:40:00,66.1,30.2,30.00,SW,228,5.0,6.0,26,0.00,,,0.00,Wunderground v.1.15,2014-02-08 23:40:00,
2014-02-08 16:45:00,65.5,29.7,30.00,WSW,248,6.0,7.0,26,0.00,,,0.00,Wunderground v.1.15,2014-02-08 23:45:00,
2014-02-08 16:50:00,65.2,30.3,30.01,SW,233,7.0,7.0,27,0.00,,,0.00,Wunderground v.1.15,2014-02-08 23:50:00,
2014-02-08 16:55:00,65.2,30.3,30.01,SW,230,6.0,7.0,27,0.00,,,0.00,Wunderground v.1.15,2014-02-08 23:55:00,
2014-02-08 17:00:00,65.2,30.3,30.01,WSW,242,5.0,5.0,27,0.00,,,0.00,Wunderground v.1.15,2014-02-09 00:00:00,
2014-02-08 17:10:00,65.0,30.2,30.01,West,271,5.0,5.0,27,0.00,,,0.00,Wunderground v.1.15,2014-02-09 00:10:00,
2014-02-08 17:15:00,64.9,30.1,30.01,SSW,194,4.0,5.0,27,0.00,,,0.00,Wunderground v.1.15,2014-02-09 00:15:00,
2014-02-08 17:20:00,64.9,30.1,30.02,SW,217,4.0,4.0,27,0.00,,,0.00,Wunderground v.1.15,2014-02-09 00:20:00,
2014-02-08 17:25:00,64.8,30.0,30.02,WSW,245,4.0,4.0,27,0.00,,,0.00,Wunderground v.1.15,2014-02-09 00:25:00,
2014-02-08 17:30:00,64.4,29.7,30.02,WSW,255,4.0,4.0,27,0.00,,,0.00,Wunderground v.1.15,2014-02-09 00:30:00,
2014-02-08 17:40:00,63.8,30.0,30.02,SW,236,5.0,5.0,28,0.00,,,0.00,Wunderground v.1.15,2014-02-09 00:40:00,
2014-02-08 17:50:00,63.4,29.7,30.02,SW,226,3.0,3.0,28,0.00,,,0.00,Wunderground v.1.15,2014-02-09 00:50:00,
2014-02-08 17:55:00,62.8,29.2,30.02,WSW,248,3.0,4.0,28,0.00,,,0.00,Wunderground v.1.15,2014-02-09 00:55:00,
2014-02-08 18:00:00,62.5,29.8,30.02,NNW,327,3.0,3.0,29,0.00,,,0.00,Wunderground v.1.15,2014-02-09 01:00:00,
2014-02-08 18:05:00,62.0,29.3,30.02,NW,316,1.0,3.0,29,0.00,,,0.00,Wunderground v.1.15,2014-02-09 01:05:00,
2014-02-08 18:15:00,61.5,29.7,30.02,NW,313,2.0,2.0,30,0.00,,,0.00,Wunderground v.1.15,2014-02-09 01:15:00,
2014-02-08 18:20:00,61.2,30.3,30.02,WNW,288,3.0,3.0,31,0.00,,,0.00,Wunderground v.1.15,2014-02-09 01:20:00,
2014-02-08 18:25:00,60.8,29.9,30.03,WNW,289,2.0,3.0,31,0.00,,,0.00,Wunderground v.1.15,2014-02-09 01:25:00,
2014-02-08 18:30:00,60.6,30.6,30.02,NW,316,2.0,2.0,32,0.00,,,0.00,Wunderground v.1.15,2014-02-09 01:30:00,
2014-02-08 18:35:00,60.4,30.4,30.02,NW,304,3.0,4.0,32,0.00,,,0.00,Wunderground v.1.15,2014-02-09 01:35:00,
2014-02-08 18:40:00,60.3,31.0,30.02,NW,311,4.0,4.0,33,0.00,,,0.00,Wunderground v.1.15,2014-02-09 01:40:00,
2014-02-08 18:45:00,60.3,31.0,30.02,NW,318,4.0,4.0,33,0.00,,,0.00,Wunderground v.1.15,2014-02-09 01:45:00,
2014-02-08 18:50:00,60.3,31.0,30.02,NW,315,4.0,4.0,33,0.00,,,0.00,Wunderground v.1.15,2014-02-09 01:50:00,
2014-02-08 18:55:00,60.2,31.0,30.02,NW,323,4.0,4.0,33,0.00,,,0.00,Wunderground v.1.15,2014-02-09 01:55:00,
2014-02-08 19:05:00,59.3,30.9,30.02,NNW,328,5.0,5.0,34,0.00,,,0.00,Wunderground v.1.15,2014-02-09 02:05:00,
2014-02-08 19:10:00,58.8,30.5,30.02,NNW,329,5.0,5.0,34,0.00,,,0.00,Wunderground v.1.15,2014-02-09 02:10:00,
2014-02-08 19:15:00,58.8,30.5,30.02,NNW,328,5.0,5.0,34,0.00,,,0.00,Wunderground v.1.15,2014-02-09 02:15:00,
2014-02-08 19:20:00,59.1,30.7,30.02,NW,318,4.0,4.0,34,0.00,,,0.00,Wunderground v.1.15,2014-02-09 02:20:00,
2014-02-08 19:25:00,59.5,30.3,30.02,NW,321,3.0,4.0,33,0.00,,,0.00,Wunderground v.1.15,2014-02-09 02:25:00,
2014-02-08 19:30:00,59.4,30.3,30.02,East,84,2.0,3.0,33,0.00,,,0.00,Wunderground v.1.15,2014-02-09 02:30:00,
2014-02-08 19:35:00,58.7,30.4,30.02,NE,40,2.0,3.0,34,0.00,,,0.00,Wunderground v.1.15,2014-02-09 02:35:00,
2014-02-08 19:40:00,58.2,29.9,30.02,NE,40,2.0,3.0,34,0.00,,,0.00,Wunderground v.1.15,2014-02-09 02:40:00,
2014-02-08 19:45:00,58.5,30.2,30.02,NNE,15,2.0,3.0,34,0.00,,,0.00,Wunderground v.1.15,2014-02-09 02:45:00,
2014-02-08 19:55:00,58.4,30.1,30.02,NW,320,2.0,3.0,34,0.00,,,0.00,Wunderground v.1.15,2014-02-09 02:55:00,
2014-02-08 20:05:00,58.5,30.2,30.01,NW,326,4.0,6.0,34,0.00,,,0.00,Wunderground v.1.15,2014-02-09 03:05:00,
2014-02-08 20:10:00,58.6,30.3,30.01,NNW,345,5.0,5.0,34,0.00,,,0.00,Wunderground v.1.15,2014-02-09 03:10:00,
2014-02-08 20:15:00,58.5,30.2,30.02,NNW,342,5.0,5.0,34,0.00,,,0.00,Wunderground v.1.15,2014-02-09 03:15:00,
2014-02-08 20:20:00,57.9,30.4,30.02,NW,322,5.0,5.0,35,0.00,,,0.00,Wunderground v.1.15,2014-02-09 03:20:00,
2014-02-08 20:30:00,57.7,30.9,30.02,NW,315,3.0,5.0,36,0.00,,,0.00,Wunderground v.1.15,2014-02-09 03:30:00,
2014-02-08 20:35:00,57.8,31.0,30.02,NW,304,4.0,5.0,36,0.00,,,0.00,Wunderground v.1.15,2014-02-09 03:35:00,
2014-02-08 20:40:00,57.8,31.0,30.02,WNW,300,4.0,4.0,36,0.00,,,0.00,Wunderground v.1.15,2014-02-09 03:40:00,
2014-02-08 20:45:00,58.0,31.2,30.02,WNW,302,4.0,4.0,36,0.00,,,0.00,Wunderground v.1.15,2014-02-09 03:45:00,
2014-02-08 20:50:00,58.2,30.7,30.03,NW,315,4.0,4.0,35,0.00,,,0.00,Wunderground v.1.15,2014-02-09 03:50:00,
2014-02-08 20:55:00,58.1,31.3,30.03,NW,315,3.0,4.0,36,0.00,,,0.00,Wunderground v.1.15,2014-02-09 03:55:00,
2014-02-08 21:05:00,58.5,30.9,30.03,WNW,298,3.0,4.0,35,0.00,,,0.00,Wunderground v.1.15,2014-02-09 04:05:00,
2014-02-08 21:10:00,58.8,31.2,30.03,NW,315,3.0,3.0,35,0.00,,,0.00,Wunderground v.1.15,2014-02-09 04:10:00,
2014-02-08 21:15:00,58.6,31.0,30.02,NE,51,2.0,3.0,35,0.00,,,0.00,Wunderground v.1.15,2014-02-09 04:15:00,
2014-02-08 21:25:00,57.6,30.8,30.02,NW,320,0.0,1.0,36,0.00,,,0.00,Wunderground v.1.15,2014-02-09 04:25:00,
2014-02-08 21:30:00,58.1,30.6,30.02,North,354,0.0,1.0,35,0.00,,,0.00,Wunderground v.1.15,2014-02-09 04:30:00,
2014-02-08 21:40:00,58.4,30.8,30.02,NNW,341,1.0,3.0,35,0.00,,,0.00,Wunderground v.1.15,2014-02-09 04:40:00,
2014-02-08 21:45:00,58.3,30.7,30.02,North,351,2.0,3.0,35,0.00,,,0.00,Wunderground v.1.15,2014-02-09 04:45:00,
2014-02-08 21:50:00,58.1,30.6,30.02,NW,326,3.0,5.0,35,0.00,,,0.00,Wunderground v.1.15,2014-02-09 04:50:00,
2014-02-08 21:55:00,57.6,30.1,30.02,NW,320,5.0,7.0,35,0.00,,,0.00,Wunderground v.1.15,2014-02-09 04:55:00,
2014-02-08 22:00:00,57.3,30.5,30.02,NW,321,6.0,6.0,36,0.00,,,0.00,Wunderground v.1.15,2014-02-09 05:00:00,
2014-02-08 22:05:00,57.6,30.1,30.02,NNW,338,6.0,6.0,35,0.00,,,0.00,Wunderground v.1.15,2014-02-09 05:05:00,
2014-02-08 22:10:00,58.2,30.7,30.02,NNW,327,5.0,5.0,35,0.00,,,0.00,Wunderground v.1.15,2014-02-09 05:10:00,
2014-02-08 22:15:00,58.5,30.2,30.02,NW,322,4.0,5.0,34,0.00,,,0.00,Wunderground v.1.15,2014-02-09 05:15:00,
2014-02-08 22:20:00,58.4,30.1,30.03,NNW,342,4.0,4.0,34,0.00,,,0.00,Wunderground v.1.15,2014-02-09 05:20:00,
2014-02-08 22:30:00,57.9,30.4,30.02,NNW,328,4.0,4.0,35,0.00,,,0.00,Wunderground v.1.15,2014-02-09 05:30:00,
2014-02-08 22:35:00,58.3,30.7,30.02,NNW,334,3.0,4.0,35,0.00,,,0.00,Wunderground v.1.15,2014-02-09 05:35:00,
2014-02-08 22:45:00,58.7,30.4,30.02,NW,318,2.0,2.0,34,0.00,,,0.00,Wunderground v.1.15,2014-02-09 05:45:00,
2014-02-08 22:50:00,58.8,30.5,30.02,NW,314,2.0,2.0,34,0.00,,,0.00,Wunderground v.1.15,2014-02-09 05:50:00,
2014-02-08 22:55:00,58.6,31.0,30.02,NW,316,2.0,3.0,35,0.00,,,0.00,Wunderground v.1.15,2014-02-09 05:55:00,
2014-02-08 23:00:00,58.3,30.7,30.02,NW,312,2.0,2.0,35,0.00,,,0.00,Wunderground v.1.15,2014-02-09 06:00:00,
2014-02-08 23:10:00,57.9,31.1,30.03,NNW,339,4.0,6.0,36,0.00,,,0.00,Wunderground v.1.15,2014-02-09 06:10:00,
2014-02-08 23:15:00,57.0,31.0,30.03,NW,323,5.0,6.0,37,0.00,,,0.00,Wunderground v.1.15,2014-02-09 06:15:00,
2014-02-08 23:20:00,56.4,31.1,30.03,NW,323,4.0,4.0,38,0.00,,,0.00,Wunderground v.1.15,2014-02-09 06:20:00,
2014-02-08 23:25:00,56.8,30.8,30.03,WNW,296,3.0,4.0,37,0.00,,,0.00,Wunderground v.1.15,2014-02-09 06:25:00,
2014-02-08 23:30:00,56.9,30.9,30.03,NW,304,4.0,5.0,37,0.00,,,0.00,Wunderground v.1.15,2014-02-09 06:30:00,
2014-02-08 23:35:00,56.7,31.4,30.03,NNW,333,3.0,5.0,38,0.00,,,0.00,Wunderground v.1.15,2014-02-09 06:35:00,
2014-02-08 23:40:00,56.7,31.4,30.04,NNW,338,4.0,6.0,38,0.00,,,0.00,Wunderground v.1.15,2014-02-09 06:40:00,
2014-02-08 23:45:00,56.6,31.3,30.04,NW,321,4.0,6.0,38,0.00,,,0.00,Wunderground v.1.15,2014-02-09 06:45:00,
2014-02-08 23:55:00,56.9,30.9,30.04,NNW,348,4.0,4.0,37,0.00,,,0.00,Wunderground v.1.15,2014-02-09 06:55:00,